createdAt,value
2019-02-12T00:00:08.876Z,7.40
2019-02-12T00:02:37.586Z,7.30
2019-02-12T00:05:06.391Z,7.40
2019-02-12T00:07:35.119Z,7.20
2019-02-12T00:10:04.840Z,7.30
2019-02-12T00:12:33.528Z,7.10
2019-02-12T00:15:02.190Z,7.20
2019-02-12T00:17:30.890Z,7.10
2019-02-12T00:19:59.589Z,7.40
2019-02-12T00:22:28.347Z,7.30
2019-02-12T00:24:57.051Z,7.40
2019-02-12T00:27:25.763Z,7.40
2019-02-12T00:29:54.465Z,7.20
2019-02-12T00:32:23.532Z,7.40
2019-02-12T00:34:52.239Z,7.50
2019-02-12T00:37:20.929Z,7.50
2019-02-12T00:39:49.607Z,7.40
2019-02-12T00:42:18.316Z,7.40
2019-02-12T00:44:47.029Z,7.50
2019-02-12T00:47:15.715Z,7.50
2019-02-12T00:49:44.419Z,7.60
2019-02-12T00:52:13.144Z,7.50
2019-02-12T00:54:41.811Z,7.40
2019-02-12T00:57:10.603Z,7.70
2019-02-12T00:59:39.272Z,7.70
2019-02-12T01:02:08.180Z,7.80
2019-02-12T01:04:36.882Z,7.70
2019-02-12T01:07:05.542Z,7.80
2019-02-12T01:09:34.351Z,7.70
2019-02-12T01:12:03.019Z,8.00
2019-02-12T01:14:31.836Z,7.90
2019-02-12T01:17:00.533Z,7.80
2019-02-12T01:19:29.297Z,7.80
2019-02-12T01:21:57.949Z,8.20
2019-02-12T01:24:26.681Z,8.00
2019-02-12T01:26:55.414Z,7.80
2019-02-12T01:29:24.077Z,7.90
2019-02-12T01:31:52.796Z,7.90
2019-02-12T01:34:21.577Z,7.80
2019-02-12T01:36:50.400Z,7.80
2019-02-12T01:39:19.076Z,7.90
2019-02-12T01:41:47.804Z,7.80
2019-02-12T01:44:16.473Z,7.80
2019-02-12T01:46:45.177Z,8.10
2019-02-12T01:49:13.864Z,7.90
2019-02-12T01:51:42.642Z,7.90
2019-02-12T01:54:11.432Z,8.00
2019-02-12T01:56:40.268Z,7.80
2019-02-12T01:59:08.983Z,7.50
2019-02-12T02:01:37.662Z,7.70
2019-02-12T02:04:06.363Z,7.70
2019-02-12T02:06:35.093Z,7.50
2019-02-12T02:09:05.188Z,7.70
2019-02-12T02:11:33.967Z,7.60
2019-02-12T02:14:02.753Z,7.40
2019-02-12T02:16:31.451Z,7.50
2019-02-12T02:19:00.359Z,7.50
2019-02-12T02:21:29.075Z,7.50
2019-02-12T02:23:57.728Z,7.50
2019-02-12T02:26:26.430Z,7.70
2019-02-12T02:28:55.143Z,7.90
2019-02-12T02:31:23.933Z,8.00
2019-02-12T02:33:52.651Z,8.10
2019-02-12T02:36:21.441Z,8.00
2019-02-12T02:38:50.117Z,8.00
2019-02-12T02:41:18.831Z,7.70
2019-02-12T02:43:47.607Z,7.80
2019-02-12T02:46:16.289Z,7.80
2019-02-12T02:48:44.996Z,7.60
2019-02-12T02:51:13.668Z,7.40
2019-02-12T02:53:42.404Z,7.40
2019-02-12T02:56:11.090Z,7.60
2019-02-12T02:58:39.747Z,7.60
2019-02-12T03:01:08.462Z,7.90
2019-02-12T03:03:37.169Z,7.70
2019-02-12T03:06:05.865Z,8.00
2019-02-12T03:08:34.548Z,7.80
2019-02-12T03:11:03.258Z,7.90
2019-02-12T03:13:32.404Z,8.10
2019-02-12T03:16:01.122Z,8.30
2019-02-12T03:18:29.855Z,8.20
2019-02-12T03:20:58.564Z,8.20
2019-02-12T03:23:27.239Z,8.20
2019-02-12T03:25:55.947Z,8.10
2019-02-12T03:28:24.665Z,8.10
2019-02-12T03:30:53.353Z,8.10
2019-02-12T03:33:22.119Z,7.80
2019-02-12T03:35:50.957Z,8.00
2019-02-12T03:38:19.843Z,7.90
2019-02-12T03:40:48.519Z,7.80
2019-02-12T03:43:17.248Z,7.60
2019-02-12T03:45:45.912Z,7.80
2019-02-12T03:48:14.633Z,7.80
2019-02-12T03:50:43.332Z,7.90
2019-02-12T03:53:12.216Z,7.90
2019-02-12T03:55:40.966Z,8.00
2019-02-12T03:58:09.641Z,8.10
2019-02-12T04:00:38.348Z,7.80
2019-02-12T04:03:08.076Z,7.90
2019-02-12T04:05:38.058Z,7.80
2019-02-12T04:08:06.839Z,7.70
2019-02-12T04:10:35.548Z,7.70
2019-02-12T04:13:04.352Z,7.80
2019-02-12T04:15:33.176Z,7.50
2019-02-12T04:18:01.859Z,7.50
2019-02-12T04:20:30.600Z,7.60
2019-02-12T04:22:59.363Z,7.30
2019-02-12T04:25:28.113Z,7.30
2019-02-12T04:27:56.850Z,7.50
2019-02-12T04:30:25.639Z,7.60
2019-02-12T04:32:54.314Z,7.40
2019-02-12T04:35:22.996Z,7.30
2019-02-12T04:37:51.682Z,7.60
2019-02-12T04:40:20.351Z,7.20
2019-02-12T04:42:49.072Z,7.30
2019-02-12T04:45:17.732Z,7.30
2019-02-12T04:47:46.399Z,7.40
2019-02-12T04:50:16.115Z,7.20
2019-02-12T04:52:44.827Z,7.30
2019-02-12T04:55:13.657Z,7.20
2019-02-12T04:57:42.361Z,7.20
2019-02-12T05:00:16.354Z,7.30
2019-02-12T05:02:45.220Z,7.20
2019-02-12T05:05:13.954Z,7.30
2019-02-12T05:07:42.622Z,7.40
2019-02-12T05:10:14.235Z,7.50
2019-02-12T05:12:42.968Z,7.20
2019-02-12T05:15:11.680Z,7.30
2019-02-12T05:17:40.363Z,7.00
2019-02-12T05:20:11.712Z,6.90
2019-02-12T05:22:43.512Z,7.00
2019-02-12T05:25:10.834Z,6.90
2019-02-12T05:27:39.519Z,7.00
2019-02-12T05:30:13.635Z,7.30
2019-02-12T05:32:42.426Z,7.30
2019-02-12T05:35:11.184Z,7.10
2019-02-12T05:37:39.898Z,7.00
2019-02-12T05:40:10.143Z,7.20
2019-02-12T05:42:38.856Z,7.20
2019-02-12T05:45:12.637Z,7.30
2019-02-12T05:47:41.540Z,7.20
2019-02-12T05:50:12.344Z,7.30
2019-02-12T05:52:41.078Z,7.20
2019-02-12T05:55:10.425Z,7.00
2019-02-12T05:57:39.197Z,7.10
2019-02-12T06:00:20.064Z,7.10
2019-02-12T06:02:48.776Z,7.10
2019-02-12T06:05:29.521Z,7.10
2019-02-12T06:07:58.454Z,7.40
2019-02-12T06:10:27.236Z,7.10
2019-02-12T06:12:56.112Z,7.20
2019-02-12T06:15:24.782Z,7.10
2019-02-12T06:17:53.491Z,7.10
2019-02-12T06:20:22.299Z,7.20
2019-02-12T06:22:50.967Z,7.00
2019-02-12T06:25:19.703Z,7.20
2019-02-12T06:27:48.414Z,7.20
2019-02-12T06:30:17.087Z,7.10
2019-02-12T06:32:45.818Z,7.20
2019-02-12T06:35:14.582Z,7.00
2019-02-12T06:37:43.350Z,7.20
2019-02-12T06:40:12.482Z,7.20
2019-02-12T06:42:41.192Z,7.10
2019-02-12T06:45:14.147Z,7.30
2019-02-12T06:47:42.855Z,7.00
2019-02-12T06:50:14.974Z,6.90
2019-02-12T06:52:43.696Z,6.90
2019-02-12T06:55:12.401Z,7.10
2019-02-12T06:57:41.068Z,7.00
2019-02-12T07:00:14.888Z,7.20
2019-02-12T07:03:14.683Z,7.20
2019-02-12T07:06:05.998Z,7.00
2019-02-12T07:08:54.383Z,7.10
2019-02-12T07:11:25.982Z,6.90
2019-02-12T07:14:12.975Z,7.00
2019-02-12T07:17:13.614Z,7.00
2019-02-12T07:20:01.887Z,7.00
2019-02-12T07:22:39.483Z,7.30
2019-02-12T07:25:26.391Z,7.20
2019-02-12T07:28:03.475Z,7.20
2019-02-12T07:30:46.730Z,7.10
2019-02-12T07:33:30.468Z,7.30
2019-02-12T07:36:08.176Z,7.10
2019-02-12T07:39:02.636Z,7.00
2019-02-12T07:41:46.465Z,7.20
2019-02-12T07:44:21.078Z,7.30
2019-02-12T07:47:01.655Z,6.90
2019-02-12T07:49:50.009Z,6.90
2019-02-12T07:52:36.841Z,7.10
2019-02-12T07:55:20.418Z,7.00
2019-02-12T07:57:54.852Z,7.20
2019-02-12T08:00:35.568Z,7.30
2019-02-12T08:03:33.210Z,7.10
2019-02-12T08:06:17.043Z,7.40
2019-02-12T08:08:57.653Z,7.20
2019-02-12T08:11:50.720Z,7.20
2019-02-12T08:14:43.419Z,7.10
2019-02-12T08:17:30.497Z,7.30
2019-02-12T08:20:10.689Z,7.30
2019-02-12T08:22:47.993Z,7.30
2019-02-12T08:25:25.691Z,7.20
2019-02-12T08:27:57.338Z,7.20
2019-02-12T08:30:41.157Z,7.30
2019-02-12T08:33:12.779Z,7.50
2019-02-12T08:36:08.386Z,7.40
2019-02-12T08:38:49.015Z,7.40
2019-02-12T08:41:29.725Z,7.50
2019-02-12T08:44:10.052Z,7.30
2019-02-12T08:46:50.570Z,7.30
2019-02-12T08:49:31.281Z,7.60
2019-02-12T08:52:38.021Z,7.60
2019-02-12T08:55:21.790Z,7.70
2019-02-12T08:57:56.415Z,7.60
2019-02-12T09:00:34.215Z,7.50
2019-02-12T09:03:17.700Z,7.70
2019-02-12T09:05:58.518Z,7.50
2019-02-12T09:08:30.122Z,7.50
2019-02-12T09:11:16.932Z,7.50
2019-02-12T09:13:54.375Z,7.80
2019-02-12T09:16:31.918Z,7.70
2019-02-12T09:19:15.816Z,7.60
2019-02-12T09:22:05.814Z,7.40
2019-02-12T09:24:40.606Z,7.60
2019-02-12T09:27:29.899Z,7.50
2019-02-12T09:30:22.693Z,7.60
2019-02-12T09:33:14.938Z,7.50
2019-02-12T09:35:57.823Z,7.30
2019-02-12T09:38:49.396Z,7.50
2019-02-12T09:41:21.026Z,7.60
2019-02-12T09:43:52.879Z,7.60
2019-02-12T09:46:44.205Z,7.30
2019-02-12T09:49:18.745Z,7.80
2019-02-12T09:52:05.446Z,7.70
2019-02-12T09:54:54.147Z,7.50
2019-02-12T09:57:42.495Z,7.80
2019-02-12T10:00:41.586Z,7.80
2019-02-12T10:03:34.728Z,7.50
2019-02-12T10:06:09.204Z,7.60
2019-02-12T10:08:44.017Z,7.60
2019-02-12T10:11:21.749Z,7.70
2019-02-12T10:14:11.891Z,7.60
2019-02-12T10:16:55.639Z,7.80
2019-02-12T10:19:48.254Z,7.70
2019-02-12T10:22:25.847Z,7.60
2019-02-12T10:25:00.802Z,7.50
2019-02-12T10:27:38.368Z,7.50
2019-02-12T10:30:15.957Z,7.60
2019-02-12T10:32:44.659Z,7.90
2019-02-12T10:35:14.028Z,8.00
2019-02-12T10:37:42.825Z,7.80
2019-02-12T10:40:11.532Z,8.00
2019-02-12T10:42:40.287Z,8.00
2019-02-12T10:45:09.412Z,8.30
2019-02-12T10:47:38.113Z,8.00
2019-02-12T10:50:08.568Z,8.10
2019-02-12T10:52:37.367Z,8.30
2019-02-12T10:55:06.446Z,8.10
2019-02-12T10:57:35.240Z,8.30
2019-02-12T11:00:07.072Z,8.50
2019-02-12T11:02:35.775Z,8.40
2019-02-12T11:05:04.662Z,8.40
2019-02-12T11:07:33.377Z,8.60
2019-02-12T11:10:02.067Z,8.50
2019-02-12T11:12:30.776Z,8.80
2019-02-12T11:14:59.482Z,8.80
2019-02-12T11:17:28.215Z,8.80
2019-02-12T11:19:56.921Z,8.80
2019-02-12T11:22:25.605Z,8.90
2019-02-12T11:24:54.313Z,8.90
2019-02-12T11:27:22.990Z,9.10
2019-02-12T11:29:51.703Z,8.90
2019-02-12T11:32:20.387Z,9.20
2019-02-12T11:34:49.097Z,9.30
2019-02-12T11:37:17.805Z,9.00
2019-02-12T11:39:46.523Z,9.10
2019-02-12T11:42:15.240Z,9.10
2019-02-12T11:44:43.909Z,8.90
2019-02-12T11:47:12.629Z,8.90
2019-02-12T11:49:41.312Z,9.00
2019-02-12T11:52:10.043Z,9.00
2019-02-12T11:54:43.558Z,9.10
2019-02-12T11:57:09.255Z,8.90
2019-02-12T11:59:37.932Z,9.10
2019-02-12T12:02:06.654Z,9.00
2019-02-12T12:04:35.348Z,9.10
2019-02-12T12:07:04.134Z,9.30
2019-02-12T12:09:32.839Z,9.20
2019-02-12T12:12:01.517Z,9.00
2019-02-12T12:14:30.217Z,9.20
2019-02-12T12:16:58.927Z,9.10
2019-02-12T12:19:27.633Z,9.30
2019-02-12T12:21:56.309Z,9.20
2019-02-12T12:24:25.038Z,9.30
2019-02-12T12:26:53.711Z,9.30
2019-02-12T12:29:22.432Z,9.10
2019-02-12T12:31:53.364Z,9.30
2019-02-12T12:34:22.052Z,9.50
2019-02-12T12:36:50.789Z,9.40
2019-02-12T12:39:19.439Z,9.50
2019-02-12T12:41:48.349Z,9.70
2019-02-12T12:44:17.145Z,9.60
2019-02-12T12:46:45.823Z,9.30
2019-02-12T12:49:14.487Z,9.30
2019-02-12T12:51:43.184Z,9.40
2019-02-12T12:54:11.847Z,9.20
2019-02-12T12:56:40.550Z,9.50
2019-02-12T12:59:09.240Z,9.20
2019-02-12T13:01:37.950Z,9.30
2019-02-12T13:04:06.639Z,9.20
2019-02-12T13:06:35.330Z,9.30
2019-02-12T13:09:05.662Z,9.40
2019-02-12T13:11:35.823Z,9.60
2019-02-12T13:14:04.739Z,9.50
2019-02-12T13:16:33.452Z,9.40
2019-02-12T13:19:02.173Z,9.60
2019-02-12T13:21:30.894Z,9.60
2019-02-12T13:23:59.611Z,9.50
2019-02-12T13:26:28.280Z,9.60
2019-02-12T13:28:56.998Z,9.50
2019-02-12T13:31:25.710Z,9.50
2019-02-12T13:33:54.463Z,9.70
2019-02-12T13:36:23.145Z,9.60
2019-02-12T13:38:51.839Z,9.60
2019-02-12T13:41:20.542Z,9.90
2019-02-12T13:43:49.266Z,9.70
2019-02-12T13:46:20.119Z,9.60
2019-02-12T13:48:48.838Z,9.50
2019-02-12T13:51:17.522Z,9.40
2019-02-12T13:53:46.205Z,9.50
2019-02-12T13:56:14.935Z,9.50
2019-02-12T13:58:43.615Z,9.60
2019-02-12T14:01:12.303Z,9.80
2019-02-12T14:03:41.111Z,9.50
2019-02-12T14:06:09.970Z,9.70
2019-02-12T14:08:38.837Z,9.70
2019-02-12T14:11:07.532Z,9.80
2019-02-12T14:13:36.209Z,9.60
2019-02-12T14:16:05.012Z,9.90
2019-02-12T14:18:33.746Z,10.00
2019-02-12T14:21:02.429Z,9.80
2019-02-12T14:23:31.218Z,9.80
2019-02-12T14:25:59.896Z,9.80
2019-02-12T14:28:28.595Z,9.70
2019-02-12T14:30:57.306Z,9.80
2019-02-12T14:33:26.013Z,9.90
2019-02-12T14:35:54.693Z,9.90
2019-02-12T14:38:23.404Z,10.10
2019-02-12T14:40:52.083Z,10.20
2019-02-12T14:43:20.788Z,10.40
2019-02-12T14:45:49.491Z,10.20
2019-02-12T14:48:18.202Z,10.40
2019-02-12T14:50:46.877Z,10.30
2019-02-12T14:53:15.601Z,10.20
2019-02-12T14:55:44.308Z,9.80
2019-02-12T14:58:12.979Z,9.90
2019-02-12T15:00:41.814Z,10.20
2019-02-12T15:03:10.523Z,10.10
2019-02-12T15:05:39.303Z,10.30
2019-02-12T15:08:08.014Z,10.30
2019-02-12T15:10:36.834Z,10.00
2019-02-12T15:13:05.504Z,10.60
2019-02-12T15:15:34.221Z,10.50
2019-02-12T15:18:02.896Z,10.20
2019-02-12T15:20:31.807Z,10.50
2019-02-12T15:23:00.545Z,10.60
2019-02-12T15:25:29.236Z,10.50
2019-02-12T15:27:57.954Z,10.50
2019-02-12T15:30:26.735Z,10.40
2019-02-12T15:32:55.417Z,10.40
2019-02-12T15:35:24.135Z,10.50
2019-02-12T15:37:52.883Z,10.40
2019-02-12T15:40:21.781Z,10.30
2019-02-12T15:42:50.515Z,10.60
2019-02-12T15:45:23.400Z,10.40
2019-02-12T15:47:52.128Z,10.40
2019-02-12T15:50:20.900Z,10.60
2019-02-12T15:52:49.561Z,10.50
2019-02-12T15:55:18.288Z,10.50
2019-02-12T15:57:47.061Z,10.50
2019-02-12T16:00:19.809Z,10.70
2019-02-12T16:02:47.895Z,10.30
2019-02-12T16:05:16.636Z,10.50
2019-02-12T16:07:47.364Z,10.20
2019-02-12T16:10:20.499Z,10.20
2019-02-12T16:12:51.775Z,10.20
2019-02-12T16:15:22.369Z,10.30
2019-02-12T16:17:51.378Z,10.10
2019-02-12T16:20:20.140Z,10.20
2019-02-12T16:22:48.803Z,10.10
2019-02-12T16:25:17.502Z,10.00
2019-02-12T16:27:46.286Z,10.10
2019-02-12T16:30:19.970Z,10.00
2019-02-12T16:32:48.693Z,9.70
2019-02-12T16:35:18.915Z,10.10
2019-02-12T16:37:49.292Z,9.80
2019-02-12T16:40:18.272Z,10.00
2019-02-12T16:42:47.005Z,10.00
2019-02-12T16:45:24.649Z,10.00
2019-02-12T16:47:53.355Z,9.80
2019-02-12T16:50:22.120Z,9.90
2019-02-12T16:59:03.442Z,10.00
2019-02-12T17:04:44.145Z,9.50
2019-02-12T17:07:12.906Z,9.60
2019-02-12T17:09:42.384Z,9.60
2019-02-12T17:12:11.201Z,9.60
2019-02-12T17:14:42.058Z,9.60
2019-02-12T17:17:23.504Z,9.50
2019-02-12T17:19:52.277Z,9.70
2019-02-12T17:22:20.963Z,9.70
2019-02-12T17:24:50.693Z,10.00
2019-02-12T17:27:19.395Z,9.50
2019-02-12T17:29:48.193Z,9.80
2019-02-12T17:32:16.986Z,9.60
2019-02-12T17:34:45.872Z,9.80
2019-02-12T17:37:18.024Z,9.60
2019-02-12T17:39:48.445Z,9.70
2019-02-12T17:42:18.511Z,9.70
2019-02-12T17:44:47.352Z,9.60
2019-02-12T17:47:17.019Z,9.50
2019-02-12T17:49:47.195Z,9.50
2019-02-12T17:52:17.047Z,9.60
2019-02-12T17:54:47.335Z,9.20
2019-02-12T17:57:16.109Z,9.50
2019-02-12T17:59:44.851Z,9.40
2019-02-12T18:02:13.551Z,9.30
2019-02-12T18:04:43.397Z,9.50
2019-02-12T18:07:12.091Z,9.20
2019-02-12T18:09:40.929Z,9.40
2019-02-12T18:12:09.638Z,9.20
2019-02-12T18:14:40.167Z,9.30
2019-02-12T18:17:08.880Z,9.50
2019-02-12T18:19:37.634Z,9.40
2019-02-12T18:22:07.566Z,9.10
2019-02-12T18:24:38.201Z,9.30
2019-02-12T18:27:09.807Z,9.10
2019-02-12T18:29:38.501Z,8.90
2019-02-12T18:32:07.336Z,9.20
2019-02-12T18:34:37.568Z,9.10
2019-02-12T18:37:08.692Z,9.20
2019-02-12T18:39:37.862Z,9.10
2019-02-12T18:42:06.705Z,9.20
2019-02-12T18:44:38.370Z,9.30
2019-02-12T18:47:07.167Z,9.00
2019-02-12T18:49:35.958Z,9.00
2019-02-12T18:52:06.858Z,8.80
2019-02-12T18:54:36.406Z,9.10
2019-02-12T18:57:05.169Z,8.90
2019-02-12T18:59:34.032Z,9.10
2019-02-12T19:02:02.767Z,8.90
2019-02-12T19:04:31.633Z,9.00
2019-02-12T19:07:01.750Z,9.10
2019-02-12T19:09:30.581Z,8.90
2019-02-12T19:12:00.811Z,8.90
2019-02-12T19:14:29.693Z,9.10
2019-02-12T19:16:58.551Z,8.90
2019-02-12T19:19:27.370Z,9.30
2019-02-12T19:21:57.416Z,8.90
2019-02-12T19:24:26.141Z,8.90
2019-02-12T19:26:55.885Z,9.00
2019-02-12T19:29:24.672Z,9.00
2019-02-12T19:31:59.186Z,9.10
2019-02-12T19:34:23.990Z,8.90
2019-02-12T19:36:52.768Z,9.00
2019-02-12T19:39:23.153Z,9.20
2019-02-12T19:41:51.870Z,9.20
2019-02-12T19:44:20.648Z,9.20
2019-02-12T19:46:50.881Z,9.30
2019-02-12T19:49:22.177Z,9.10
2019-02-12T19:51:51.008Z,9.30
2019-02-12T19:54:21.962Z,9.10
2019-02-12T19:56:58.063Z,8.90
2019-02-12T19:59:23.295Z,8.80
2019-02-12T20:01:56.835Z,8.70
2019-02-12T20:04:28.039Z,9.10
2019-02-12T20:06:56.736Z,8.90
2019-02-12T20:09:27.516Z,8.80
2019-02-12T20:11:56.368Z,9.00
2019-02-12T20:14:25.160Z,9.00
2019-02-12T20:16:54.570Z,8.70
2019-02-12T20:19:24.610Z,9.00
2019-02-12T20:21:55.577Z,9.00
2019-02-12T20:24:25.937Z,9.00
2019-02-12T20:26:54.738Z,8.80
2019-02-12T20:29:23.502Z,9.00
2019-02-12T20:31:53.498Z,8.60
2019-02-12T20:34:22.300Z,8.60
2019-02-12T20:36:51.069Z,9.00
2019-02-12T20:39:22.310Z,8.50
2019-02-12T20:41:51.085Z,8.50
2019-02-12T20:44:22.440Z,8.60
2019-02-12T20:46:54.085Z,8.70
2019-02-12T20:49:24.183Z,8.60
2019-02-12T20:51:54.976Z,8.50
2019-02-12T20:54:25.194Z,8.70
2019-02-12T20:56:55.744Z,8.60
2019-02-12T20:59:24.466Z,8.70
2019-02-12T21:01:55.704Z,8.70
2019-02-12T21:04:27.834Z,8.60
2019-02-12T21:06:56.675Z,8.30
2019-02-12T21:09:28.001Z,8.50
2019-02-12T21:11:57.749Z,8.20
2019-02-12T21:14:26.504Z,8.50
2019-02-12T21:16:58.032Z,8.50
2019-02-12T21:19:26.913Z,8.10
2019-02-12T21:21:57.221Z,8.10
2019-02-12T21:24:27.785Z,8.50
2019-02-12T21:26:57.281Z,8.30
2019-02-12T21:29:32.376Z,8.20
2019-02-12T21:32:01.164Z,8.50
2019-02-12T21:34:29.882Z,8.50
2019-02-12T21:37:00.119Z,8.40
2019-02-12T21:39:28.924Z,8.40
2019-02-12T21:41:57.626Z,8.50
2019-02-12T21:44:26.388Z,8.50
2019-02-12T21:46:56.601Z,8.50
2019-02-12T21:49:25.347Z,8.50
2019-02-12T21:51:54.184Z,8.20
2019-02-12T21:54:22.984Z,8.40
2019-02-12T21:56:53.309Z,8.20
2019-02-12T21:59:23.343Z,8.20
2019-02-12T22:01:52.097Z,8.20
2019-02-12T22:04:22.004Z,8.20
2019-02-12T22:06:50.836Z,8.30
2019-02-12T22:09:19.615Z,8.50
2019-02-12T22:11:49.691Z,8.30
2019-02-12T22:14:21.277Z,8.40
2019-02-12T22:16:50.061Z,8.40
2019-02-12T22:19:18.761Z,8.50
2019-02-12T22:21:47.546Z,8.40
2019-02-12T22:24:17.398Z,8.50
2019-02-12T22:26:48.598Z,8.40
2019-02-12T22:29:17.472Z,8.50
2019-02-12T22:31:46.252Z,8.20
2019-02-12T22:34:15.124Z,8.50
2019-02-12T22:36:43.869Z,8.10
2019-02-12T22:39:14.731Z,8.30
2019-02-12T22:41:44.937Z,8.50
2019-02-12T22:44:13.951Z,8.70
2019-02-12T22:46:46.102Z,8.60
2019-02-12T22:49:14.904Z,8.60
2019-02-12T22:51:43.727Z,8.40
2019-02-12T22:54:15.153Z,8.70
2019-02-12T22:56:45.305Z,8.40
2019-02-12T22:59:15.317Z,8.60
2019-02-12T23:01:47.077Z,8.50
2019-02-12T23:04:16.906Z,8.60
2019-02-12T23:06:45.849Z,8.40
2019-02-12T23:09:16.115Z,8.50
2019-02-12T23:11:44.866Z,8.70
2019-02-12T23:14:16.979Z,8.50
2019-02-12T23:16:45.727Z,8.60
2019-02-12T23:19:14.517Z,8.20
2019-02-12T23:21:45.712Z,8.40
2019-02-12T23:24:15.347Z,8.30
2019-02-12T23:26:45.628Z,8.50
2019-02-12T23:29:14.595Z,8.20
2019-02-12T23:31:45.782Z,8.10
2019-02-12T23:34:14.528Z,8.20
2019-02-12T23:36:43.841Z,8.20
2019-02-12T23:39:12.693Z,8.30
2019-02-12T23:41:44.209Z,8.50
2019-02-12T23:44:13.012Z,8.40
2019-02-12T23:46:41.795Z,8.60
2019-02-12T23:49:10.588Z,8.30
2019-02-12T23:51:39.395Z,8.60
2019-02-12T23:54:08.189Z,8.60
2019-02-12T23:56:37.150Z,8.40
2019-02-12T23:59:07.193Z,8.40
